createdAt,value
2022-09-07T00:01:24.425Z,60.05
2022-09-07T00:03:55.487Z,60.38
2022-09-07T00:06:23.490Z,64.92
2022-09-07T00:08:51.372Z,70.52
2022-09-07T00:11:19.798Z,68.42
2022-09-07T00:13:48.465Z,64.95
2022-09-07T00:16:19.049Z,56.92
2022-09-07T00:18:46.808Z,50.42
2022-09-07T00:21:15.989Z,50.28
2022-09-07T00:23:44.207Z,51.63
2022-09-07T00:26:13.478Z,52.63
2022-09-07T00:28:41.732Z,53.65
2022-09-07T00:31:10.852Z,54.68
2022-09-07T00:33:38.660Z,56.06
2022-09-07T00:36:06.375Z,57.13
2022-09-07T00:38:34.005Z,57.75
2022-09-07T00:41:01.797Z,58.52
2022-09-07T00:43:29.356Z,59.13
2022-09-07T00:45:56.978Z,59.95
2022-09-07T00:48:28.001Z,64.20
2022-09-07T00:50:58.315Z,69.64
2022-09-07T00:53:31.973Z,67.85
2022-09-07T00:56:00.263Z,60.40
2022-09-07T00:58:28.072Z,53.25
2022-09-07T01:00:56.407Z,52.71
2022-09-07T01:03:27.545Z,53.75
2022-09-07T01:06:05.547Z,55.03
2022-09-07T01:08:35.942Z,55.39
2022-09-07T01:11:04.595Z,56.74
2022-09-07T01:13:32.493Z,57.97
2022-09-07T01:16:20.402Z,58.78
2022-09-07T01:19:06.608Z,59.22
2022-09-07T01:21:37.441Z,65.03
2022-09-07T01:24:14.206Z,69.41
2022-09-07T01:27:00.597Z,67.79
2022-09-07T01:29:34.201Z,60.24
2022-09-07T01:32:22.056Z,52.81
2022-09-07T01:34:52.549Z,51.63
2022-09-07T01:37:22.980Z,52.81
2022-09-07T01:40:07.125Z,54.56
2022-09-07T01:42:39.028Z,55.38
2022-09-07T01:45:11.532Z,57.14
2022-09-07T01:47:53.986Z,58.21
2022-09-07T01:50:24.755Z,58.90
2022-09-07T01:53:01.430Z,59.47
2022-09-07T01:55:36.601Z,59.45
2022-09-07T01:58:13.363Z,59.93
2022-09-07T02:00:45.218Z,65.00
2022-09-07T02:03:20.092Z,71.10
2022-09-07T02:06:04.648Z,68.21
2022-09-07T02:08:35.423Z,65.20
2022-09-07T02:11:12.579Z,56.42
2022-09-07T02:13:40.312Z,50.37
2022-09-07T02:16:08.054Z,50.29
2022-09-07T02:18:41.969Z,51.07
2022-09-07T02:21:10.791Z,52.17
2022-09-07T02:23:40.855Z,53.53
2022-09-07T02:26:13.326Z,54.64
2022-09-07T02:28:40.957Z,55.41
2022-09-07T02:31:08.604Z,56.81
2022-09-07T02:33:36.536Z,57.89
2022-09-07T02:36:05.167Z,58.71
2022-09-07T02:38:33.646Z,59.55
2022-09-07T02:41:02.152Z,64.53
2022-09-07T02:43:30.908Z,69.56
2022-09-07T02:46:13.550Z,67.89
2022-09-07T02:48:57.195Z,64.94
2022-09-07T02:51:36.709Z,56.80
2022-09-07T02:54:13.288Z,50.26
2022-09-07T02:56:52.697Z,50.28
2022-09-07T02:59:23.396Z,51.70
2022-09-07T03:02:06.294Z,53.31
2022-09-07T03:04:40.860Z,54.67
2022-09-07T03:07:19.850Z,56.05
2022-09-07T03:09:49.800Z,56.93
2022-09-07T03:12:17.566Z,58.40
2022-09-07T03:14:45.547Z,59.36
2022-09-07T03:17:13.340Z,63.89
2022-09-07T03:19:41.072Z,69.59
2022-09-07T03:22:09.031Z,67.54
2022-09-07T03:24:37.118Z,64.38
2022-09-07T03:27:04.850Z,57.07
2022-09-07T03:29:32.478Z,51.00
2022-09-07T03:32:00.095Z,51.06
2022-09-07T03:34:27.738Z,52.44
2022-09-07T03:36:55.362Z,53.67
2022-09-07T03:39:24.251Z,54.32
2022-09-07T03:41:51.938Z,55.40
2022-09-07T03:44:19.670Z,56.45
2022-09-07T03:46:47.553Z,57.15
2022-09-07T03:49:15.826Z,57.86
2022-09-07T03:51:43.521Z,58.75
2022-09-07T03:54:11.140Z,59.41
2022-09-07T03:56:38.771Z,63.68
2022-09-07T03:59:06.537Z,70.55
2022-09-07T04:01:34.248Z,68.47
2022-09-07T04:04:02.990Z,64.59
2022-09-07T04:06:30.790Z,56.76
2022-09-07T04:09:01.568Z,50.72
2022-09-07T04:11:29.328Z,50.59
2022-09-07T04:13:57.147Z,51.65
2022-09-07T04:16:25.706Z,53.75
2022-09-07T04:18:56.313Z,54.51
2022-09-07T04:21:24.795Z,55.61
2022-09-07T04:23:52.681Z,56.51
2022-09-07T04:26:22.253Z,57.36
2022-09-07T04:28:50.321Z,58.23
2022-09-07T04:31:18.627Z,59.16
2022-09-07T04:33:46.890Z,63.61
2022-09-07T04:36:14.883Z,69.43
2022-09-07T04:38:43.011Z,67.80
2022-09-07T04:41:13.070Z,64.60
2022-09-07T04:43:41.146Z,56.69
2022-09-07T04:46:13.288Z,50.66
2022-09-07T04:48:40.962Z,50.89
2022-09-07T04:51:09.926Z,52.45
2022-09-07T04:53:38.320Z,53.73
2022-09-07T04:56:06.175Z,55.18
2022-09-07T04:58:33.842Z,56.65
2022-09-07T05:01:02.406Z,58.12
2022-09-07T05:03:30.666Z,62.91
2022-09-07T05:06:00.680Z,68.67
2022-09-07T05:08:28.418Z,66.52
2022-09-07T05:10:57.559Z,62.71
2022-09-07T05:13:25.677Z,56.54
2022-09-07T05:15:53.284Z,51.49
2022-09-07T05:18:21.393Z,52.00
2022-09-07T05:20:49.039Z,53.10
2022-09-07T05:23:16.950Z,54.41
2022-09-07T05:25:45.610Z,55.64
2022-09-07T05:28:18.632Z,57.16
2022-09-07T05:36:25.743Z,68.75
2022-09-07T05:38:57.089Z,65.41
2022-09-07T05:41:25.706Z,56.63
2022-09-07T05:46:41.755Z,50.68
2022-09-07T05:49:10.434Z,52.66
2022-09-07T05:51:38.628Z,54.57
2022-09-07T05:54:06.406Z,55.48
2022-09-07T05:56:34.965Z,55.61
2022-09-07T05:59:02.587Z,57.19
2022-09-07T06:01:30.204Z,57.98
2022-09-07T06:03:57.966Z,58.07
2022-09-07T06:06:25.595Z,57.95
2022-09-07T06:08:53.819Z,58.46
2022-09-07T06:11:22.850Z,58.63
2022-09-07T06:13:50.817Z,58.85
2022-09-07T06:16:19.967Z,59.32
2022-09-07T06:18:48.618Z,59.18
2022-09-07T06:21:18.009Z,63.49
2022-09-07T06:23:46.065Z,68.70
2022-09-07T06:26:14.563Z,65.42
2022-09-07T06:28:43.690Z,56.73
2022-09-07T06:31:13.436Z,50.93
2022-09-07T06:33:42.088Z,49.89
2022-09-07T06:36:11.525Z,50.79
2022-09-07T06:38:39.930Z,52.06
2022-09-07T06:44:01.826Z,51.99
2022-09-07T06:49:17.515Z,54.01
2022-09-07T06:51:45.467Z,55.02
2022-09-07T06:57:00.889Z,54.19
2022-09-07T06:59:28.508Z,54.89
2022-09-07T07:01:56.804Z,53.46
2022-09-07T07:04:24.424Z,52.72
2022-09-07T07:06:52.110Z,53.33
2022-09-07T07:09:19.722Z,52.63
2022-09-07T07:11:48.283Z,52.21
2022-09-07T07:14:16.756Z,51.71
2022-09-07T07:16:44.677Z,52.19
2022-09-07T07:19:12.459Z,52.39
2022-09-07T07:22:03.538Z,52.81
2022-09-07T07:24:27.725Z,52.56
2022-09-07T07:26:55.889Z,52.78
2022-09-07T07:29:26.227Z,49.50
2022-09-07T07:31:56.256Z,48.89
2022-09-07T07:34:23.871Z,49.42
2022-09-07T07:36:51.850Z,49.68
2022-09-07T07:42:07.142Z,49.65
2022-09-07T07:44:35.043Z,48.66
2022-09-07T07:47:02.960Z,46.59
2022-09-07T07:49:31.147Z,46.91
2022-09-07T07:54:46.578Z,46.56
2022-09-07T07:57:14.613Z,44.04
2022-09-07T07:59:42.539Z,44.22
2022-09-07T08:02:14.182Z,42.90
2022-09-07T08:04:41.914Z,41.88
2022-09-07T08:07:12.029Z,40.56
2022-09-07T08:09:41.638Z,39.59
2022-09-07T08:12:11.508Z,39.20
2022-09-07T08:14:41.544Z,38.48
2022-09-07T08:17:10.452Z,38.35
2022-09-07T08:19:38.511Z,38.39
2022-09-07T08:22:07.038Z,39.43
2022-09-07T08:24:35.031Z,38.73
2022-09-07T08:27:02.777Z,38.10
2022-09-07T08:29:34.666Z,38.29
2022-09-07T08:32:06.590Z,39.65
2022-09-07T08:34:37.486Z,39.06
2022-09-07T08:37:05.228Z,37.67
2022-09-07T08:39:33.030Z,38.02
2022-09-07T08:42:24.457Z,38.20
2022-09-07T08:45:00.822Z,36.89
2022-09-07T08:47:43.229Z,36.03
2022-09-07T08:50:23.232Z,36.87
2022-09-07T08:52:59.608Z,35.94
2022-09-07T08:58:32.590Z,31.12
2022-09-07T09:04:17.614Z,25.67
2022-09-07T09:07:01.344Z,22.89
2022-09-07T09:09:29.021Z,20.88
2022-09-07T09:11:56.562Z,19.77
2022-09-07T09:17:19.006Z,16.34
2022-09-07T09:20:02.148Z,16.05
2022-09-07T09:22:29.782Z,15.74
2022-09-07T09:25:03.285Z,14.65
2022-09-07T09:27:30.914Z,12.86
2022-09-07T09:29:58.484Z,12.95
2022-09-07T09:32:41.648Z,12.56
2022-09-07T09:35:12.170Z,12.46
2022-09-07T09:37:39.818Z,12.09
2022-09-07T09:40:17.625Z,13.33
2022-09-07T09:42:45.441Z,12.36
2022-09-07T09:45:20.812Z,11.30
2022-09-07T09:47:53.063Z,11.27
2022-09-07T09:53:21.910Z,10.39
2022-09-07T09:55:51.492Z,9.99
2022-09-07T10:01:26.712Z,10.03
2022-09-07T10:03:55.616Z,9.76
2022-09-07T10:06:24.197Z,9.35
2022-09-07T10:08:58.981Z,10.09
2022-09-07T10:14:43.479Z,9.02
2022-09-07T10:17:12.939Z,8.14
2022-09-07T10:19:42.140Z,7.89
2022-09-07T10:22:31.456Z,7.38
2022-09-07T10:25:01.028Z,7.74
2022-09-07T10:27:33.837Z,7.50
2022-09-07T10:30:02.043Z,7.29
2022-09-07T10:32:40.637Z,7.20
2022-09-07T10:35:14.719Z,7.65
2022-09-07T10:37:48.612Z,7.54
2022-09-07T10:40:16.501Z,7.38
2022-09-07T10:45:38.629Z,7.15
2022-09-07T10:48:07.190Z,7.04
2022-09-07T10:50:39.056Z,7.16
2022-09-07T10:53:40.736Z,7.09
2022-09-07T10:56:25.911Z,7.32
2022-09-07T10:59:12.134Z,7.10
2022-09-07T11:01:42.639Z,6.72
2022-09-07T11:04:21.885Z,6.22
2022-09-07T11:06:49.397Z,6.64
2022-09-07T11:09:55.616Z,7.06
2022-09-07T11:12:29.231Z,6.95
2022-09-07T11:15:02.702Z,6.81
2022-09-07T11:17:31.044Z,6.63
2022-09-07T11:20:01.975Z,6.37
2022-09-07T11:22:30.848Z,6.25
2022-09-07T11:28:20.454Z,6.25
2022-09-07T11:30:50.928Z,6.51
2022-09-07T11:33:23.250Z,6.23
2022-09-07T11:35:50.814Z,6.04
2022-09-07T11:41:06.430Z,6.30
2022-09-07T11:43:41.795Z,6.63
2022-09-07T11:46:26.698Z,6.37
2022-09-07T11:48:57.956Z,6.27
2022-09-07T11:51:28.308Z,6.15
2022-09-07T11:54:16.161Z,6.56
2022-09-07T11:56:45.970Z,6.61
2022-09-07T11:59:13.594Z,6.17
2022-09-07T12:01:48.998Z,6.83
2022-09-07T12:04:16.707Z,6.35
2022-09-07T12:06:44.415Z,6.33
2022-09-07T12:09:21.221Z,6.49
2022-09-07T12:12:18.696Z,6.54
2022-09-07T12:14:50.980Z,7.40
2022-09-07T12:17:19.005Z,7.23
2022-09-07T12:19:46.676Z,6.87
2022-09-07T12:22:21.093Z,7.13
2022-09-07T12:24:50.080Z,7.35
2022-09-07T12:27:20.491Z,7.57
2022-09-07T12:30:10.757Z,7.83
2022-09-07T12:32:56.962Z,7.75
2022-09-07T12:35:28.310Z,7.81
2022-09-07T12:37:56.443Z,7.88
2022-09-07T12:40:27.252Z,7.64
2022-09-07T12:43:13.515Z,8.05
2022-09-07T12:45:41.657Z,7.69
2022-09-07T12:48:15.551Z,7.95
2022-09-07T12:51:02.405Z,7.61
2022-09-07T12:53:54.205Z,8.09
2022-09-07T12:56:43.900Z,8.41
2022-09-07T12:59:20.744Z,8.15
2022-09-07T13:02:06.762Z,8.27
2022-09-07T13:04:43.352Z,8.18
2022-09-07T13:07:13.978Z,8.35
2022-09-07T13:09:41.731Z,8.93
2022-09-07T13:15:31.727Z,8.94
2022-09-07T13:17:59.545Z,9.21
2022-09-07T13:20:36.117Z,9.40
2022-09-07T13:23:23.062Z,9.30
2022-09-07T13:25:52.488Z,8.96
2022-09-07T13:28:23.590Z,9.45
2022-09-07T13:31:09.756Z,9.38
2022-09-07T13:33:42.681Z,9.36
2022-09-07T13:36:19.324Z,9.23
2022-09-07T13:38:47.971Z,9.75
2022-09-07T13:41:17.622Z,9.98
2022-09-07T13:43:49.181Z,10.27
2022-09-07T13:46:32.133Z,11.19
2022-09-07T13:49:06.521Z,10.86
2022-09-07T13:51:45.913Z,11.17
2022-09-07T13:54:19.080Z,12.04
2022-09-07T13:56:58.646Z,12.28
2022-09-07T13:59:27.546Z,12.24
2022-09-07T14:01:55.329Z,12.92
2022-09-07T14:04:27.799Z,13.34
2022-09-07T14:07:02.476Z,14.40
2022-09-07T14:09:30.447Z,14.38
2022-09-07T14:11:58.128Z,14.08
2022-09-07T14:14:30.269Z,14.75
2022-09-07T14:16:57.892Z,14.66
2022-09-07T14:19:31.210Z,14.08
2022-09-07T14:22:03.233Z,14.78
2022-09-07T14:24:32.524Z,14.76
2022-09-07T14:27:00.668Z,14.29
2022-09-07T14:29:31.172Z,14.40
2022-09-07T14:31:59.568Z,14.63
2022-09-07T14:34:31.082Z,15.13
2022-09-07T14:37:01.510Z,15.44
2022-09-07T14:39:30.063Z,15.39
2022-09-07T14:41:58.965Z,15.07
2022-09-07T14:44:27.791Z,15.36
2022-09-07T14:46:57.269Z,16.16
2022-09-07T14:49:25.216Z,15.96
2022-09-07T14:51:53.673Z,16.21
2022-09-07T14:54:32.534Z,16.49
2022-09-07T14:57:09.383Z,16.53
2022-09-07T14:59:38.772Z,16.76
2022-09-07T15:02:18.283Z,16.56
2022-09-07T15:04:46.899Z,17.28
2022-09-07T15:07:32.966Z,16.68
2022-09-07T15:10:13.789Z,16.85
2022-09-07T15:12:42.637Z,17.08
2022-09-07T15:15:21.440Z,17.98
2022-09-07T15:17:49.789Z,17.54
2022-09-07T15:20:32.428Z,17.53
2022-09-07T15:23:00.120Z,17.68
2022-09-07T15:25:28.192Z,18.05
2022-09-07T15:27:55.830Z,18.09
2022-09-07T15:30:23.509Z,18.38
2022-09-07T15:32:51.555Z,18.69
2022-09-07T15:35:19.158Z,18.87
2022-09-07T15:38:04.523Z,18.46
2022-09-07T15:40:38.401Z,18.56
2022-09-07T15:43:19.918Z,19.26
2022-09-07T15:45:49.559Z,19.36
2022-09-07T15:48:20.979Z,19.33
2022-09-07T15:50:49.487Z,20.02
2022-09-07T15:56:05.201Z,19.77
2022-09-07T15:58:33.140Z,20.25
2022-09-07T16:03:52.777Z,21.14
2022-09-07T16:06:21.804Z,22.67
2022-09-07T16:08:51.464Z,23.76
2022-09-07T16:11:23.880Z,24.50
2022-09-07T16:13:51.692Z,24.82
2022-09-07T16:16:19.602Z,23.82
2022-09-07T16:18:47.548Z,26.33
2022-09-07T16:21:16.180Z,26.92
2022-09-07T16:23:47.938Z,27.65
2022-09-07T16:26:17.002Z,27.77
2022-09-07T16:28:45.850Z,28.22
2022-09-07T16:31:15.069Z,28.31
2022-09-07T16:33:42.757Z,28.53
2022-09-07T16:36:13.131Z,29.19
2022-09-07T16:38:45.768Z,29.98
2022-09-07T16:41:18.034Z,31.73
2022-09-07T16:43:46.114Z,31.64
2022-09-07T16:46:15.724Z,31.78
2022-09-07T16:48:44.099Z,32.07
2022-09-07T16:51:12.940Z,32.09
2022-09-07T16:53:40.584Z,32.11
2022-09-07T16:56:12.958Z,32.53
2022-09-07T16:58:41.973Z,32.93
2022-09-07T17:01:10.790Z,33.09
2022-09-07T17:03:38.908Z,33.94
2022-09-07T17:06:07.741Z,34.58
2022-09-07T17:08:36.240Z,34.71
2022-09-07T17:11:08.608Z,36.13
2022-09-07T17:13:36.907Z,36.32
2022-09-07T17:16:05.582Z,37.39
2022-09-07T17:21:21.602Z,37.58
2022-09-07T17:23:54.887Z,37.38
2022-09-07T17:26:26.592Z,37.09
2022-09-07T17:28:56.600Z,37.31
2022-09-07T17:34:19.612Z,37.70
2022-09-07T17:36:47.737Z,38.87
2022-09-07T17:39:17.629Z,39.62
2022-09-07T17:41:46.213Z,40.02
2022-09-07T17:44:13.830Z,40.92
2022-09-07T17:46:41.440Z,40.12
2022-09-07T17:49:11.247Z,39.93
2022-09-07T17:51:39.493Z,40.50
2022-09-07T17:54:11.631Z,40.31
2022-09-07T17:56:40.046Z,41.32
2022-09-07T18:01:56.008Z,41.53
2022-09-07T18:04:24.081Z,42.30
2022-09-07T18:06:51.772Z,42.78
2022-09-07T18:09:19.926Z,42.90
2022-09-07T18:11:49.310Z,42.52
2022-09-07T18:14:17.941Z,43.35
2022-09-07T18:16:46.771Z,43.06
2022-09-07T18:19:14.483Z,43.87
2022-09-07T18:21:42.995Z,44.37
2022-09-07T18:24:18.917Z,44.20
2022-09-07T18:26:51.502Z,44.29
2022-09-07T18:29:29.306Z,44.59
2022-09-07T18:31:58.792Z,44.65
2022-09-07T18:34:28.606Z,44.81
2022-09-07T18:36:57.319Z,45.13
2022-09-07T18:39:25.545Z,45.42
2022-09-07T18:41:55.921Z,45.47
2022-09-07T18:47:21.718Z,45.02
2022-09-07T18:49:51.495Z,45.51
2022-09-07T18:55:09.998Z,44.66
2022-09-07T18:57:38.090Z,44.81
2022-09-07T19:00:07.132Z,44.85
2022-09-07T19:02:35.913Z,44.91
2022-09-07T19:07:51.505Z,44.84
2022-09-07T19:10:19.185Z,44.71
2022-09-07T19:12:47.131Z,44.56
2022-09-07T19:15:14.887Z,44.83
2022-09-07T19:17:42.480Z,44.82
2022-09-07T19:20:10.487Z,45.15
2022-09-07T19:22:39.036Z,45.65
2022-09-07T19:25:06.763Z,45.75
2022-09-07T19:27:34.670Z,45.74
2022-09-07T19:30:02.302Z,45.32
2022-09-07T19:32:29.967Z,45.41
2022-09-07T19:34:57.575Z,45.15
2022-09-07T19:37:25.456Z,45.24
2022-09-07T19:39:55.919Z,45.35
2022-09-07T19:42:23.936Z,44.60
2022-09-07T19:44:52.404Z,45.26
2022-09-07T19:47:20.241Z,44.90
2022-09-07T19:49:47.816Z,45.83
2022-09-07T19:52:15.493Z,47.31
2022-09-07T19:54:43.477Z,47.07
2022-09-07T19:57:11.194Z,47.94
2022-09-07T19:59:39.884Z,47.44
2022-09-07T20:02:08.907Z,47.75
2022-09-07T20:04:36.472Z,47.54
2022-09-07T20:07:04.133Z,47.21
2022-09-07T20:09:31.801Z,47.82
2022-09-07T20:12:01.832Z,47.98
2022-09-07T20:14:29.568Z,47.91
2022-09-07T20:16:57.756Z,47.86
2022-09-07T20:19:25.435Z,48.72
2022-09-07T20:21:55.832Z,49.75
2022-09-07T20:24:23.507Z,49.73
2022-09-07T20:26:51.502Z,50.20
2022-09-07T20:29:28.242Z,50.07
2022-09-07T20:31:57.822Z,49.72
2022-09-07T20:34:26.436Z,50.34
2022-09-07T20:36:54.519Z,50.71
2022-09-07T20:39:22.433Z,49.86
2022-09-07T20:41:50.211Z,49.75
2022-09-07T20:44:17.872Z,49.57
2022-09-07T20:46:45.696Z,49.80
2022-09-07T20:49:13.333Z,49.82
2022-09-07T20:51:40.909Z,50.51
2022-09-07T20:54:08.535Z,50.96
2022-09-07T20:56:36.159Z,51.56
2022-09-07T20:59:03.944Z,51.59
2022-09-07T21:01:32.494Z,51.57
2022-09-07T21:04:01.016Z,51.05
2022-09-07T21:06:29.496Z,50.77
2022-09-07T21:08:57.426Z,51.20
2022-09-07T21:11:26.415Z,52.11
2022-09-07T21:13:55.166Z,51.99
2022-09-07T21:16:22.934Z,51.94
2022-09-07T21:18:57.958Z,52.39
2022-09-07T21:21:27.303Z,52.19
2022-09-07T21:23:59.579Z,51.83
2022-09-07T21:26:27.874Z,51.55
2022-09-07T21:28:56.482Z,51.38
2022-09-07T21:31:24.554Z,52.10
2022-09-07T21:33:55.992Z,52.67
2022-09-07T21:36:23.915Z,52.69
2022-09-07T21:38:51.897Z,52.45
2022-09-07T21:41:19.944Z,52.59
2022-09-07T21:43:47.572Z,52.65
2022-09-07T21:46:16.765Z,52.34
2022-09-07T21:48:45.622Z,53.04
2022-09-07T21:51:13.741Z,53.58
2022-09-07T21:53:41.873Z,53.50
2022-09-07T21:56:10.709Z,53.46
2022-09-07T21:58:39.910Z,53.90
2022-09-07T22:01:12.325Z,54.27
2022-09-07T22:03:40.649Z,53.52
2022-09-07T22:06:08.877Z,53.92
2022-09-07T22:08:37.554Z,54.37
2022-09-07T22:11:10.703Z,54.71
2022-09-07T22:13:38.512Z,54.64
2022-09-07T22:16:06.921Z,53.50
2022-09-07T22:18:36.908Z,55.05
2022-09-07T22:21:04.513Z,55.59
2022-09-07T22:23:33.064Z,56.12
2022-09-07T22:26:00.789Z,56.29
2022-09-07T22:28:29.029Z,56.17
2022-09-07T22:30:57.229Z,56.42
2022-09-07T22:33:25.303Z,56.49
2022-09-07T22:35:53.321Z,56.68
2022-09-07T22:38:20.861Z,56.95
2022-09-07T22:40:48.432Z,56.65
2022-09-07T22:43:16.003Z,56.83
2022-09-07T22:45:43.545Z,57.12
2022-09-07T22:48:11.135Z,57.31
2022-09-07T22:50:38.740Z,57.48
2022-09-07T22:53:06.303Z,57.83
2022-09-07T22:55:37.971Z,58.00
2022-09-07T22:58:05.603Z,57.92
2022-09-07T23:00:35.472Z,57.82
2022-09-07T23:03:04.022Z,57.89
2022-09-07T23:05:37.620Z,58.14
2022-09-07T23:08:05.419Z,58.28
2022-09-07T23:10:36.704Z,58.22
2022-09-07T23:13:04.295Z,58.06
2022-09-07T23:15:31.913Z,58.34
2022-09-07T23:17:59.517Z,58.41
2022-09-07T23:20:27.137Z,58.24
2022-09-07T23:22:54.722Z,58.27
2022-09-07T23:25:22.739Z,58.65
2022-09-07T23:27:50.368Z,58.48
2022-09-07T23:30:18.066Z,58.79
2022-09-07T23:32:45.696Z,58.94
2022-09-07T23:35:16.518Z,59.11
2022-09-07T23:37:44.403Z,58.86
2022-09-07T23:40:12.076Z,58.91
2022-09-07T23:42:40.031Z,59.09
2022-09-07T23:45:08.755Z,59.25
2022-09-07T23:47:36.319Z,59.35
2022-09-07T23:50:04.000Z,59.78
2022-09-07T23:52:31.826Z,60.08
2022-09-07T23:54:59.819Z,60.34
2022-09-07T23:57:27.950Z,60.38
2022-09-07T23:59:55.557Z,60.49
